N611NK KMSY-KMZJ
Flight info
| Callsign | N611NK |
|---|---|
| Flight time | N/A |
| Altitude | 28000 |
| Route | AEX WWELL PYLET INK EWM J4 SSO HOTTT SECBO |
| Aircraft | A320/M-SBDE1FGHILORXY/B1 |
Departure
| Time | N/A |
|---|---|
| Airport | Louis Armstrong New Orleans International Airport (KMSY) |
Arrival
| Time | 2026-05-08 01:27 |
|---|---|
| Airport | Pinal Airpark (KMZJ) |
| Time | Latitude | Longitude | Altitude | Speed | Heading |
|---|---|---|---|---|---|
| 2026-05-08 00:53 | 32.13137 | -107.88015 | 27949 ft | 413 kts | 273° |
| 2026-05-08 00:53 | 32.13493 | -107.91380 | 27931 ft | 413 kts | 273° |
| 2026-05-08 00:54 | 32.13848 | -107.94748 | 27916 ft | 414 kts | 273° |
| 2026-05-08 00:54 | 32.14200 | -107.98112 | 27902 ft | 415 kts | 273° |
| 2026-05-08 00:54 | 32.14551 | -108.01493 | 27886 ft | 416 kts | 273° |
| 2026-05-08 00:54 | 32.14903 | -108.04879 | 27865 ft | 416 kts | 273° |
| 2026-05-08 00:55 | 32.15254 | -108.08273 | 27851 ft | 417 kts | 273° |
| 2026-05-08 00:55 | 32.15606 | -108.11671 | 27832 ft | 418 kts | 273° |
| 2026-05-08 00:55 | 32.15959 | -108.15092 | 27829 ft | 419 kts | 273° |
| 2026-05-08 00:55 | 32.16311 | -108.18505 | 27826 ft | 419 kts | 273° |
| 2026-05-08 00:56 | 32.16663 | -108.21926 | 27827 ft | 420 kts | 273° |
| 2026-05-08 00:56 | 32.17014 | -108.25354 | 27828 ft | 421 kts | 274° |
| 2026-05-08 00:56 | 32.17367 | -108.28791 | 27825 ft | 422 kts | 274° |
| 2026-05-08 00:56 | 32.17720 | -108.32237 | 27832 ft | 423 kts | 274° |
| 2026-05-08 00:57 | 32.18072 | -108.35689 | 27851 ft | 424 kts | 274° |
| 2026-05-08 00:57 | 32.18423 | -108.39146 | 27869 ft | 425 kts | 274° |
| 2026-05-08 00:57 | 32.18769 | -108.42559 | 27886 ft | 425 kts | 274° |
| 2026-05-08 00:57 | 32.19117 | -108.46028 | 27903 ft | 426 kts | 274° |
| 2026-05-08 00:58 | 32.19462 | -108.49506 | 27919 ft | 427 kts | 274° |
| 2026-05-08 00:58 | 32.19812 | -108.53035 | 27936 ft | 428 kts | 274° |
| 2026-05-08 00:58 | 32.20151 | -108.56478 | 27950 ft | 428 kts | 274° |
| 2026-05-08 00:58 | 32.20502 | -108.60026 | 27964 ft | 429 kts | 274° |
| 2026-05-08 00:59 | 32.20842 | -108.63477 | 27976 ft | 429 kts | 274° |
| 2026-05-08 00:59 | 32.21188 | -108.66985 | 27985 ft | 430 kts | 274° |
| 2026-05-08 00:59 | 32.21534 | -108.70491 | 27989 ft | 431 kts | 275° |
| 2026-05-08 00:59 | 32.21882 | -108.74006 | 27990 ft | 431 kts | 275° |
| 2026-05-08 01:00 | 32.22228 | -108.77513 | 27983 ft | 432 kts | 275° |
| 2026-05-08 01:00 | 32.22574 | -108.81043 | 27974 ft | 432 kts | 275° |
| 2026-05-08 01:00 | 32.22918 | -108.84573 | 27965 ft | 432 kts | 275° |
| 2026-05-08 01:00 | 32.23261 | -108.88101 | 27949 ft | 433 kts | 275° |
| 2026-05-08 01:01 | 32.23605 | -108.91635 | 27931 ft | 433 kts | 275° |
| 2026-05-08 01:01 | 32.23951 | -108.95168 | 27913 ft | 434 kts | 275° |
| 2026-05-08 01:01 | 32.24293 | -108.98711 | 27888 ft | 434 kts | 275° |
| 2026-05-08 01:01 | 32.24632 | -109.02255 | 27869 ft | 435 kts | 275° |
| 2026-05-08 01:02 | 32.24976 | -109.05807 | 27848 ft | 435 kts | 275° |
| 2026-05-08 01:02 | 32.25319 | -109.09358 | 27830 ft | 436 kts | 275° |
| 2026-05-08 01:02 | 32.25659 | -109.12921 | 27829 ft | 437 kts | 276° |
| 2026-05-08 01:02 | 32.25996 | -109.16486 | 27825 ft | 437 kts | 276° |
| 2026-05-08 01:03 | 32.26331 | -109.20061 | 27822 ft | 438 kts | 276° |
| 2026-05-08 01:03 | 32.26666 | -109.23646 | 27821 ft | 439 kts | 276° |
| 2026-05-08 01:03 | 32.27009 | -109.27233 | 27820 ft | 440 kts | 277° |
| 2026-05-08 01:03 | 32.27452 | -109.30810 | 27819 ft | 441 kts | 279° |
| 2026-05-08 01:04 | 32.27993 | -109.34381 | 27824 ft | 441 kts | 281° |
| 2026-05-08 01:04 | 32.28585 | -109.37940 | 27822 ft | 442 kts | 281° |
| 2026-05-08 01:04 | 32.29189 | -109.41506 | 27820 ft | 443 kts | 282° |
| 2026-05-08 01:04 | 32.29773 | -109.45021 | 27652 ft | 439 kts | 281° |
| 2026-05-08 01:05 | 32.30335 | -109.48538 | 27344 ft | 435 kts | 281° |
| 2026-05-08 01:05 | 32.30874 | -109.52045 | 26955 ft | 433 kts | 281° |
| 2026-05-08 01:05 | 32.31400 | -109.55549 | 26573 ft | 431 kts | 281° |
| 2026-05-08 01:05 | 32.31917 | -109.59033 | 26201 ft | 430 kts | 281° |
| 2026-05-08 01:06 | 32.32427 | -109.62506 | 25832 ft | 428 kts | 281° |
| 2026-05-08 01:06 | 32.32937 | -109.65966 | 25467 ft | 427 kts | 281° |
| 2026-05-08 01:06 | 32.33450 | -109.69415 | 25106 ft | 425 kts | 281° |
| 2026-05-08 01:06 | 32.33963 | -109.72840 | 24755 ft | 423 kts | 281° |
| 2026-05-08 01:07 | 32.34479 | -109.76273 | 24344 ft | 421 kts | 281° |
| 2026-05-08 01:07 | 32.34988 | -109.79670 | 23933 ft | 419 kts | 280° |
| 2026-05-08 01:07 | 32.35491 | -109.83050 | 23524 ft | 416 kts | 280° |
| 2026-05-08 01:07 | 32.35986 | -109.86399 | 23055 ft | 414 kts | 280° |
| 2026-05-08 01:08 | 32.36478 | -109.89747 | 22568 ft | 410 kts | 280° |
| 2026-05-08 01:08 | 32.36963 | -109.93045 | 22095 ft | 407 kts | 280° |
| 2026-05-08 01:08 | 32.37445 | -109.96326 | 21628 ft | 403 kts | 280° |
| 2026-05-08 01:08 | 32.37922 | -109.99579 | 21168 ft | 400 kts | 281° |
| 2026-05-08 01:09 | 32.38397 | -110.02802 | 20710 ft | 396 kts | 281° |
| 2026-05-08 01:09 | 32.38866 | -110.06010 | 20264 ft | 393 kts | 281° |
| 2026-05-08 01:09 | 32.39320 | -110.09135 | 19831 ft | 390 kts | 281° |
| 2026-05-08 01:09 | 32.39778 | -110.12292 | 19387 ft | 387 kts | 281° |
| 2026-05-08 01:10 | 32.40234 | -110.15420 | 18952 ft | 384 kts | 281° |
| 2026-05-08 01:10 | 32.40689 | -110.18525 | 18537 ft | 381 kts | 281° |
| 2026-05-08 01:10 | 32.41140 | -110.21602 | 18121 ft | 378 kts | 281° |
| 2026-05-08 01:10 | 32.41584 | -110.24657 | 17636 ft | 375 kts | 281° |
| 2026-05-08 01:11 | 32.42019 | -110.27683 | 17161 ft | 372 kts | 281° |
| 2026-05-08 01:11 | 32.42448 | -110.30677 | 16762 ft | 368 kts | 281° |
| 2026-05-08 01:11 | 32.42878 | -110.33670 | 16507 ft | 367 kts | 281° |
| 2026-05-08 01:11 | 32.43308 | -110.36650 | 16252 ft | 366 kts | 281° |
| 2026-05-08 01:12 | 32.43736 | -110.39609 | 15997 ft | 366 kts | 281° |
| 2026-05-08 01:12 | 32.44163 | -110.42577 | 15751 ft | 365 kts | 281° |
| 2026-05-08 01:12 | 32.44582 | -110.45501 | 15504 ft | 364 kts | 280° |
| 2026-05-08 01:12 | 32.45004 | -110.48462 | 15259 ft | 363 kts | 280° |
| 2026-05-08 01:13 | 32.45423 | -110.51404 | 15018 ft | 362 kts | 280° |
| 2026-05-08 01:13 | 32.45843 | -110.54340 | 14774 ft | 361 kts | 281° |
| 2026-05-08 01:13 | 32.46261 | -110.57256 | 14535 ft | 360 kts | 281° |
| 2026-05-08 01:13 | 32.46680 | -110.60186 | 14298 ft | 359 kts | 280° |
| 2026-05-08 01:14 | 32.47095 | -110.63094 | 14059 ft | 357 kts | 280° |
| 2026-05-08 01:14 | 32.47504 | -110.65988 | 13826 ft | 355 kts | 280° |
| 2026-05-08 01:14 | 32.47906 | -110.68866 | 13598 ft | 353 kts | 280° |
| 2026-05-08 01:14 | 32.48305 | -110.71725 | 13335 ft | 351 kts | 280° |
| 2026-05-08 01:15 | 32.48704 | -110.74568 | 13072 ft | 350 kts | 280° |
| 2026-05-08 01:15 | 32.49104 | -110.77403 | 12691 ft | 348 kts | 281° |
| 2026-05-08 01:15 | 32.49236 | -110.78356 | 12538 ft | 347 kts | 279° |
| 2026-05-08 01:15 | 32.49364 | -110.79683 | 12352 ft | 348 kts | 276° |
| 2026-05-08 01:16 | 32.49469 | -110.81564 | 12040 ft | 346 kts | 274° |
| 2026-05-08 01:16 | 32.49730 | -110.84361 | 11589 ft | 338 kts | 282° |
| 2026-05-08 01:16 | 32.50193 | -110.87070 | 11157 ft | 332 kts | 284° |
| 2026-05-08 01:16 | 32.50606 | -110.89720 | 10936 ft | 321 kts | 278° |
| 2026-05-08 01:17 | 32.50836 | -110.92301 | 10737 ft | 311 kts | 277° |
| 2026-05-08 01:17 | 32.51036 | -110.94826 | 10456 ft | 305 kts | 276° |
| 2026-05-08 01:17 | 32.51132 | -110.97316 | 10179 ft | 300 kts | 273° |
| 2026-05-08 01:17 | 32.51174 | -110.99777 | 9831 ft | 298 kts | 272° |
| 2026-05-08 01:18 | 32.51165 | -111.02035 | 9472 ft | 297 kts | 271° |
| 2026-05-08 01:18 | 32.51132 | -111.04453 | 9152 ft | 287 kts | 271° |
| 2026-05-08 01:18 | 32.51099 | -111.06750 | 8784 ft | 274 kts | 271° |
| 2026-05-08 01:18 | 32.51068 | -111.08975 | 8430 ft | 266 kts | 271° |
| 2026-05-08 01:19 | 32.51038 | -111.11124 | 8156 ft | 263 kts | 271° |
| 2026-05-08 01:19 | 32.51020 | -111.13276 | 7929 ft | 259 kts | 272° |
| 2026-05-08 01:19 | 32.51019 | -111.15344 | 7714 ft | 243 kts | 272° |
| 2026-05-08 01:19 | 32.51021 | -111.17318 | 7510 ft | 238 kts | 272° |
| 2026-05-08 01:20 | 32.51024 | -111.19277 | 7296 ft | 238 kts | 272° |
| 2026-05-08 01:20 | 32.51027 | -111.21228 | 7026 ft | 236 kts | 272° |
| 2026-05-08 01:20 | 32.51031 | -111.23167 | 6695 ft | 235 kts | 272° |
| 2026-05-08 01:20 | 32.51036 | -111.25077 | 6306 ft | 228 kts | 272° |
| 2026-05-08 01:21 | 32.51066 | -111.26915 | 5917 ft | 219 kts | 279° |
| 2026-05-08 01:21 | 32.51658 | -111.28490 | 5541 ft | 207 kts | 314° |
| 2026-05-08 01:21 | 32.52734 | -111.29606 | 5203 ft | 207 kts | 322° |
| 2026-05-08 01:21 | 32.53869 | -111.30627 | 4968 ft | 203 kts | 319° |
| 2026-05-08 01:22 | 32.54896 | -111.31762 | 4764 ft | 200 kts | 316° |
| 2026-05-08 01:22 | 32.55877 | -111.32905 | 4525 ft | 197 kts | 315° |
| 2026-05-08 01:22 | 32.56844 | -111.34043 | 4268 ft | 194 kts | 315° |
| 2026-05-08 01:22 | 32.57789 | -111.35156 | 4019 ft | 190 kts | 315° |
| 2026-05-08 01:23 | 32.58721 | -111.36255 | 3777 ft | 187 kts | 315° |
| 2026-05-08 01:23 | 32.59475 | -111.37489 | 3658 ft | 187 kts | 293° |
| 2026-05-08 01:23 | 32.59536 | -111.38977 | 3505 ft | 179 kts | 254° |
| 2026-05-08 01:23 | 32.58854 | -111.40095 | 3357 ft | 164 kts | 227° |
| 2026-05-08 01:24 | 32.57878 | -111.40575 | 3264 ft | 151 kts | 172° |
| 2026-05-08 01:24 | 32.56988 | -111.39952 | 3108 ft | 148 kts | 130° |
| 2026-05-08 01:24 | 32.56390 | -111.38989 | 2906 ft | 144 kts | 130° |
| 2026-05-08 01:24 | 32.55697 | -111.38139 | 2787 ft | 144 kts | 135° |
| 2026-05-08 01:25 | 32.55000 | -111.37283 | 2675 ft | 144 kts | 135° |
| 2026-05-08 01:25 | 32.54292 | -111.36446 | 2568 ft | 145 kts | 138° |
| 2026-05-08 01:25 | 32.53591 | -111.35599 | 2438 ft | 142 kts | 141° |
| 2026-05-08 01:25 | 32.52891 | -111.34798 | 2254 ft | 141 kts | 137° |
| 2026-05-08 01:26 | 32.52204 | -111.33973 | 2102 ft | 141 kts | 137° |
| 2026-05-08 01:26 | 32.51514 | -111.33155 | 1905 ft | 139 kts | 137° |
| 2026-05-08 01:26 | 32.50947 | -111.32492 | 1893 ft | 76 kts | 135° |
| 2026-05-08 01:26 | 32.50632 | -111.32121 | 1900 ft | 55 kts | 134° |
| 2026-05-08 01:27 | 32.50437 | -111.31893 | 1901 ft | 27 kts | 135° |
| 2026-05-08 01:27 | 32.50365 | -111.31795 | 1892 ft | 9 kts | 105° |
| 2026-05-08 01:27 | 32.50403 | -111.31739 | 1898 ft | 7 kts | 43° |
| 2026-05-08 01:27 | 32.50431 | -111.31710 | 1903 ft | 11 kts | 39° |
| 2026-05-08 01:28 | 32.50504 | -111.31720 | 1899 ft | 13 kts | 315° |
| 2026-05-08 01:28 | 32.50574 | -111.31801 | 1902 ft | 14 kts | 315° |
| 2026-05-08 01:28 | 32.50635 | -111.31871 | 1896 ft | 7 kts | 327° |
| 2026-05-08 01:28 | 32.50676 | -111.31921 | 1904 ft | 14 kts | 314° |
| 2026-05-08 01:29 | 32.50750 | -111.32010 | 1901 ft | 15 kts | 315° |
| 2026-05-08 01:29 | 32.50833 | -111.32110 | 1901 ft | 19 kts | 314° |
| 2026-05-08 01:29 | 32.50940 | -111.32237 | 1897 ft | 24 kts | 315° |
| 2026-05-08 01:29 | 32.51047 | -111.32366 | 1896 ft | 18 kts | 314° |
| 2026-05-08 01:30 | 32.51096 | -111.32367 | 1896 ft | 9 kts | 45° |
| 2026-05-08 01:30 | 32.51113 | -111.32347 | 1887 ft | 0 kts | 44° |